Time;durP1;ratioP1;P1;durP2;ratioP2;P2;SDS_P1;SDS_P2;PMS_P1;PMS_P2;Temp;Humidity;BMP_temperature;BMP_pressure;BME280_temperature;BME280_humidity;BME280_pressure;Samples;Min_cycle;Max_cycle;Signal;HPM_P1;HPM_P2
2022/07/26 00:01:53;;;;;;;;;;;;;;;27.40;60.29;101078.22;4955722;28;19914;-93
2022/07/26 00:04:23;;;;;;;;;;;;;;;27.41;60.04;101080.00;4965243;28;19918;-93
2022/07/26 00:06:48;;;;;;;;;;;;;;;27.42;60.04;101078.19;4964397;28;20725;-92
2022/07/26 00:09:13;;;;;;;;;;;;;;;27.41;60.08;101085.38;4965791;28;19936;-94
2022/07/26 00:11:43;;;;;;;;;;;;;;;27.40;60.30;101082.69;4959657;28;19921;-92
2022/07/26 00:14:11;;;;;;;;;;;;;;;27.39;60.04;101070.22;4977576;28;19955;-92
2022/07/26 00:16:38;;;;;;;;;;;;;;;27.38;60.01;101073.78;4957232;28;19918;-94
2022/07/26 00:19:12;;;;;;;;;;;;;;;27.39;60.08;101087.19;4966739;28;19914;-94
2022/07/26 00:21:45;;;;;;;;;;;;;;;27.37;59.99;101083.63;4956027;28;19915;-93
2022/07/26 00:24:20;;;;;;;;;;;;;;;27.35;60.16;101082.75;4970213;28;19918;-92
2022/07/26 00:26:45;;;;;;;;;;;;;;;27.36;60.26;101078.28;4964751;28;19918;-93
2022/07/26 00:29:11;;;;;;;;;;;;;;;27.36;59.91;101071.09;4967692;28;20350;-92
2022/07/26 00:31:43;;;;;;;;;;;;;;;27.36;60.02;101075.59;4966367;28;20105;-93
2022/07/26 00:34:08;;;;;;;;;;;;;;;27.34;59.94;101078.28;4972194;28;19980;-93
2022/07/26 00:36:39;;;;;;;;;;;;;;;27.35;59.92;101080.06;4963648;28;20384;-92
2022/07/26 00:39:09;;;;;;;;;;;;;;;27.35;60.16;101071.13;4948491;28;19914;-93
2022/07/26 00:41:37;;;;;;;;;;;;;;;27.30;59.85;101070.28;4993725;28;19914;-91
2022/07/26 00:44:10;;;;;;;;;;;;;;;27.33;60.05;101062.22;4954926;28;22205;-91
2022/07/26 00:46:41;;;;;;;;;;;;;;;27.32;60.02;101055.06;4951760;28;19921;-91
2022/07/26 00:49:07;;;;;;;;;;;;;;;27.31;59.60;101056.00;4965383;28;19930;-91
2022/07/26 00:51:35;;;;;;;;;;;;;;;27.30;60.03;101056.88;4963340;28;19981;-91
2022/07/26 00:54:01;;;;;;;;;;;;;;;27.27;59.68;101055.13;4963579;28;20093;-90
2022/07/26 00:56:35;;;;;;;;;;;;;;;27.28;59.64;101045.28;4953472;28;19963;-92
2022/07/26 00:59:00;;;;;;;;;;;;;;;27.30;59.62;101049.72;4976801;28;20372;-91
2022/07/26 01:01:27;;;;;;;;;;;;;;;27.31;59.51;101047.94;4955578;28;19920;-91
2022/07/26 01:03:59;;;;;;;;;;;;;;;27.33;59.48;101047.00;4968813;28;20295;-90
2022/07/26 01:06:26;;;;;;;;;;;;;;;27.30;59.54;101047.03;4982672;28;20029;-91
2022/07/26 01:08:54;;;;;;;;;;;;;;;27.28;59.70;101045.28;4964127;28;19970;-91
2022/07/26 01:11:23;;;;;;;;;;;;;;;27.26;59.49;101042.59;4981284;28;19922;-90
2022/07/26 01:13:50;;;;;;;;;;;;;;;27.28;59.44;101039.91;4979211;28;19928;-90
2022/07/26 01:16:19;;;;;;;;;;;;;;;27.27;59.65;101038.16;4952225;28;20007;-90
2022/07/26 01:18:45;;;;;;;;;;;;;;;27.28;59.54;101034.53;4970330;28;20391;-93
2022/07/26 01:21:13;;;;;;;;;;;;;;;27.28;59.49;101035.44;4962789;28;19964;-91
2022/07/26 01:23:41;;;;;;;;;;;;;;;27.26;59.42;101034.56;4962419;28;20411;-91
2022/07/26 01:26:12;;;;;;;;;;;;;;;27.23;59.45;101034.59;4996103;28;19914;-92
2022/07/26 01:28:59;;;;;;;;;;;;;;;27.26;59.54;101033.69;4975035;28;19957;-92
2022/07/26 01:31:34;;;;;;;;;;;;;;;27.27;59.42;101022.94;4977380;28;19914;-91
2022/07/26 01:33:59;;;;;;;;;;;;;;;27.25;59.23;101026.56;4962087;28;19921;-91
2022/07/26 01:36:27;;;;;;;;;;;;;;;27.26;59.54;101031.88;4961448;28;19913;-91
2022/07/26 01:39:05;;;;;;;;;;;;;;;27.25;59.38;101029.22;4961017;28;20396;-91
2022/07/26 01:41:33;;;;;;;;;;;;;;;27.25;59.17;101024.75;4968200;28;19924;-91
2022/07/26 01:44:02;;;;;;;;;;;;;;;27.24;59.37;101020.28;4961030;28;20392;-92
2022/07/26 01:46:34;;;;;;;;;;;;;;;27.23;59.17;101023.88;4978009;28;19913;-93
2022/07/26 01:49:08;;;;;;;;;;;;;;;27.25;59.32;101023.88;4959174;28;19922;-91
2022/07/26 01:51:50;;;;;;;;;;;;;;;27.24;59.33;101022.97;4961499;28;19925;-92
2022/07/26 01:54:17;;;;;;;;;;;;;;;27.25;59.19;101026.56;4963071;28;19973;-93
2022/07/26 01:56:44;;;;;;;;;;;;;;;27.21;59.30;101021.16;4962558;28;20339;-94
2022/07/26 01:59:18;;;;;;;;;;;;;;;27.21;59.15;101025.66;4961038;28;20017;-91
2022/07/26 02:01:46;;;;;;;;;;;;;;;27.20;59.41;101018.53;4960592;28;19996;-91
2022/07/26 02:04:57;;;;;;;;;;;;;;;27.17;59.41;101018.53;4960680;28;20387;-92
2022/07/26 02:06:56;;;;;;;;;;;;;;;27.18;59.39;101020.34;4979068;28;20355;-90
2022/07/26 02:09:29;;;;;;;;;;;;;;;27.19;59.31;101020.28;4959742;28;19917;-91
2022/07/26 02:12:06;;;;;;;;;;;;;;;27.18;59.28;101017.66;4960578;28;19985;-93
2022/07/26 02:14:32;;;;;;;;;;;;;;;27.16;59.32;101020.34;4974766;28;19913;-92
2022/07/26 02:17:02;;;;;;;;;;;;;;;27.15;59.44;101015.88;4973920;28;19921;-92
2022/07/26 02:19:28;;;;;;;;;;;;;;;27.11;59.33;101019.50;4974712;28;19921;-93
2022/07/26 02:22:12;;;;;;;;;;;;;;;27.12;59.23;101015.91;4946829;28;19917;-94
2022/07/26 02:24:45;;;;;;;;;;;;;;;27.12;59.24;101015.03;4960475;28;20389;-92
2022/07/26 02:27:16;;;;;;;;;;;;;;;27.11;59.49;101006.09;4977189;28;19972;-92
2022/07/26 02:29:48;;;;;;;;;;;;;;;27.13;59.30;101015.00;4960912;28;19914;-93
2022/07/26 02:32:17;;;;;;;;;;;;;;;27.14;59.13;101010.56;4961102;28;19914;-90
2022/07/26 02:34:44;;;;;;;;;;;;;;;27.14;59.10;101003.38;4974133;28;19925;-91
2022/07/26 02:37:18;;;;;;;;;;;;;;;27.14;59.01;101000.69;4952910;28;19921;-90
2022/07/26 02:39:51;;;;;;;;;;;;;;;27.13;59.08;101003.41;4944857;28;20344;-90
2022/07/26 02:42:37;;;;;;;;;;;;;;;27.09;59.27;100998.97;4977315;28;19914;-92
2022/07/26 02:45:10;;;;;;;;;;;;;;;27.07;59.51;100996.28;4976605;28;20402;-92
2022/07/26 02:47:39;;;;;;;;;;;;;;;27.06;59.11;100999.91;4961791;28;20004;-92
2022/07/26 02:50:10;;;;;;;;;;;;;;;27.07;59.49;101008.81;4964430;28;19922;-92
2022/07/26 02:52:36;;;;;;;;;;;;;;;27.08;59.35;101005.25;4959160;28;19977;-93
2022/07/26 02:55:06;;;;;;;;;;;;;;;27.07;59.06;101006.13;4957978;28;19918;-94
2022/07/26 02:57:42;;;;;;;;;;;;;;;27.07;59.41;101011.50;4966253;28;20378;-93
2022/07/26 03:00:11;;;;;;;;;;;;;;;27.02;59.49;101016.91;4964563;28;20304;-92
2022/07/26 03:02:48;;;;;;;;;;;;;;;27.04;59.29;101008.88;4964399;28;19965;-93
2022/07/26 03:05:14;;;;;;;;;;;;;;;27.04;59.21;101008.88;4959054;28;19914;-93
2022/07/26 03:07:39;;;;;;;;;;;;;;;27.06;59.07;101012.41;4944745;28;19929;-92
2022/07/26 03:10:06;;;;;;;;;;;;;;;27.05;58.90;101016.91;4971503;28;19918;-92
2022/07/26 03:12:52;;;;;;;;;;;;;;;27.01;59.27;101020.50;4957070;28;19918;-92
2022/07/26 03:15:29;;;;;;;;;;;;;;;26.98;59.30;101010.69;4955868;28;20388;-92
2022/07/26 03:18:00;;;;;;;;;;;;;;;27.01;59.01;101009.78;4944600;28;19941;-93
2022/07/26 03:20:30;;;;;;;;;;;;;;;26.96;59.35;101014.28;4957619;28;19914;-93
2022/07/26 03:22:58;;;;;;;;;;;;;;;26.97;58.93;101014.28;4956966;28;20017;-94
2022/07/26 03:25:40;;;;;;;;;;;;;;;26.97;59.14;101016.09;4957328;28;19937;-93
2022/07/26 03:31:06;;;;;;;;;;;;;;;26.93;59.30;101017.00;4974187;28;19922;-94
2022/07/26 03:33:32;;;;;;;;;;;;;;;26.92;59.32;101017.91;4958834;28;19918;-92
2022/07/26 03:36:22;;;;;;;;;;;;;;;26.94;58.97;101022.34;4957123;28;19918;-93
2022/07/26 03:38:48;;;;;;;;;;;;;;;26.94;58.85;101027.69;4950776;28;19918;-95
2022/07/26 03:41:16;;;;;;;;;;;;;;;26.91;59.04;101029.53;4957022;28;19922;-93
2022/07/26 03:43:43;;;;;;;;;;;;;;;26.92;59.12;101031.28;4955065;28;19914;-93
2022/07/26 03:46:18;;;;;;;;;;;;;;;26.90;59.24;101030.44;4956075;28;19957;-93
2022/07/26 03:48:46;;;;;;;;;;;;;;;26.90;59.08;101027.75;4935748;28;20399;-93
2022/07/26 03:51:14;;;;;;;;;;;;;;;26.90;58.89;101030.44;4973912;28;19977;-92
2022/07/26 03:53:44;;;;;;;;;;;;;;;26.88;59.01;101024.19;4956408;28;19968;-93
2022/07/26 03:58:59;;;;;;;;;;;;;;;26.87;59.04;101026.00;4972518;28;20022;-92
2022/07/26 04:01:25;;;;;;;;;;;;;;;26.81;59.06;101029.59;4956384;28;19964;-93
2022/07/26 04:03:54;;;;;;;;;;;;;;;26.85;59.22;101027.78;4954824;28;20017;-92
2022/07/26 04:06:29;;;;;;;;;;;;;;;26.87;59.16;101031.34;4959188;28;19918;-93
2022/07/26 04:11:54;;;;;;;;;;;;;;;26.85;59.13;101021.56;4990272;28;19956;-93
2022/07/26 04:14:22;;;;;;;;;;;;;;;26.83;59.28;101018.88;4962602;28;19925;-93
2022/07/26 04:16:49;;;;;;;;;;;;;;;26.83;59.17;101026.91;4979166;28;20355;-92
2022/07/26 04:19:34;;;;;;;;;;;;;;;26.84;59.09;101028.72;4962416;28;19914;-93
2022/07/26 04:25:04;;;;;;;;;;;;;;;26.82;59.21;101025.16;4983645;28;20306;-93
2022/07/26 04:28:01;;;;;;;;;;;;;;;26.82;59.01;101019.78;4963231;28;19925;-93
2022/07/26 04:30:39;;;;;;;;;;;;;;;26.83;59.11;101026.03;4968638;28;20004;-91
2022/07/26 04:33:14;;;;;;;;;;;;;;;26.80;59.48;101024.28;4962308;28;19921;-92
2022/07/26 04:35:45;;;;;;;;;;;;;;;26.83;59.12;101026.03;4962618;28;19964;-91
2022/07/26 04:38:12;;;;;;;;;;;;;;;26.80;59.41;101035.00;4961076;28;19921;-92
2022/07/26 04:40:37;;;;;;;;;;;;;;;26.78;59.36;101036.81;4949017;28;19973;-90
2022/07/26 04:43:03;;;;;;;;;;;;;;;26.79;59.35;101036.75;4960979;28;19976;-90
2022/07/26 04:45:30;;;;;;;;;;;;;;;26.78;59.43;101034.13;4963149;28;19925;-89
2022/07/26 04:48:00;;;;;;;;;;;;;;;26.76;59.38;101026.09;4969163;28;19918;-90
2022/07/26 04:50:38;;;;;;;;;;;;;;;26.76;59.41;101034.13;4981703;28;19949;-92
2022/07/26 04:53:04;;;;;;;;;;;;;;;26.76;59.59;101031.44;4971517;28;19914;-93
2022/07/26 04:55:30;;;;;;;;;;;;;;;26.74;59.46;101037.72;4963902;28;19918;-90
2022/07/26 04:57:56;;;;;;;;;;;;;;;26.74;59.73;101038.59;4962664;28;20012;-89
2022/07/26 05:00:24;;;;;;;;;;;;;;;26.73;59.58;101027.88;4974965;28;20012;-87
2022/07/26 05:02:51;;;;;;;;;;;;;;;26.74;59.57;101032.38;4977747;28;19925;-86
2022/07/26 05:05:16;;;;;;;;;;;;;;;26.74;59.70;101041.28;4976848;28;19914;-87
2022/07/26 05:07:42;;;;;;;;;;;;;;;26.71;59.99;101044.00;4956991;28;19922;-87
2022/07/26 05:10:08;;;;;;;;;;;;;;;26.74;59.77;101043.97;4957175;28;19957;-88
2022/07/26 05:12:34;;;;;;;;;;;;;;;26.75;59.72;101042.16;4971864;28;20566;-88
2022/07/26 05:14:59;;;;;;;;;;;;;;;26.78;59.53;101042.16;4941424;28;20300;-88
2022/07/26 05:17:25;;;;;;;;;;;;;;;26.77;59.61;101035.88;4962380;28;19914;-86
2022/07/26 05:19:50;;;;;;;;;;;;;;;26.75;59.67;101036.81;4967196;28;20324;-87
2022/07/26 05:22:16;;;;;;;;;;;;;;;26.74;59.82;101041.28;4951503;28;20376;-89
2022/07/26 05:24:41;;;;;;;;;;;;;;;26.75;59.53;101040.38;4954204;29;19921;-87
2022/07/26 05:27:06;;;;;;;;;;;;;;;26.77;59.65;101032.31;4955104;28;19929;-86
2022/07/26 05:29:32;;;;;;;;;;;;;;;26.76;59.56;101035.91;4941734;28;19914;-87
2022/07/26 05:31:58;;;;;;;;;;;;;;;26.77;59.69;101035.88;4975920;28;19981;-87
2022/07/26 05:34:23;;;;;;;;;;;;;;;26.78;59.70;101035.00;4941453;28;20004;-87
2022/07/26 05:36:49;;;;;;;;;;;;;;;26.78;59.71;101040.38;4974002;28;20016;-87
2022/07/26 05:39:15;;;;;;;;;;;;;;;26.77;59.72;101033.22;4965279;28;19937;-85
2022/07/26 05:41:43;;;;;;;;;;;;;;;26.76;59.56;101039.47;4940895;28;19918;-87
2022/07/26 05:44:09;;;;;;;;;;;;;;;26.75;59.81;101032.34;4942713;28;19918;-85
2022/07/26 05:46:36;;;;;;;;;;;;;;;26.74;59.87;101037.72;4974501;28;19918;-84
2022/07/26 05:49:02;;;;;;;;;;;;;;;26.65;60.12;101019.03;4953886;28;19965;-85
2022/07/26 05:51:29;;;;;;;;;;;;;;;26.75;60.23;101040.38;4947299;28;19952;-86
2022/07/26 05:53:54;;;;;;;;;;;;;;;26.74;60.13;101035.94;4963773;28;19914;-86
2022/07/26 05:56:20;;;;;;;;;;;;;;;26.76;60.07;101041.28;4948167;29;19914;-86
2022/07/26 05:58:45;;;;;;;;;;;;;;;26.74;59.92;101035.94;4976705;28;19914;-86
2022/07/26 06:01:11;;;;;;;;;;;;;;;26.71;60.13;101035.06;4939969;29;19958;-85
2022/07/26 06:03:36;;;;;;;;;;;;;;;26.62;60.53;101030.66;4955960;28;20006;-86
2022/07/26 06:06:02;;;;;;;;;;;;;;;26.69;60.53;101035.09;4969735;28;19921;-86
2022/07/26 06:08:27;;;;;;;;;;;;;;;26.66;60.57;101035.09;4982321;28;19929;-86
2022/07/26 06:10:53;;;;;;;;;;;;;;;26.68;60.25;101033.28;4994673;28;19925;-87
2022/07/26 06:13:18;;;;;;;;;;;;;;;26.65;60.60;101036.00;4977942;28;19914;-87
2022/07/26 06:15:44;;;;;;;;;;;;;;;26.64;60.24;101036.03;4971692;28;20319;-86
2022/07/26 06:18:10;;;;;;;;;;;;;;;26.60;60.35;101032.47;4975056;28;19925;-86
2022/07/26 06:20:39;;;;;;;;;;;;;;;26.59;60.55;101034.25;4957203;28;19914;-87
2022/07/26 06:23:04;;;;;;;;;;;;;;;26.65;60.15;101025.31;4977411;28;19918;-86
2022/07/26 06:25:30;;;;;;;;;;;;;;;26.68;60.42;101024.38;4992950;28;19976;-86
2022/07/26 06:27:55;;;;;;;;;;;;;;;26.66;60.17;101012.78;4954526;28;19928;-86
2022/07/26 06:30:21;;;;;;;;;;;;;;;26.65;60.04;101008.31;4989246;28;19917;-87
2022/07/26 06:32:46;;;;;;;;;;;;;;;26.66;60.04;101004.75;4975281;28;20407;-86
2022/07/26 06:35:12;;;;;;;;;;;;;;;26.69;60.10;101010.97;4975753;28;19920;-86
2022/07/26 06:37:38;;;;;;;;;;;;;;;26.60;60.15;101003.00;4971594;28;19918;-86
2022/07/26 06:40:04;;;;;;;;;;;;;;;26.57;60.31;101009.28;4961710;28;20387;-86
2022/07/26 06:42:31;;;;;;;;;;;;;;;26.59;59.99;101006.59;4959786;28;19972;-87
2022/07/26 06:44:59;;;;;;;;;;;;;;;26.60;59.98;101008.34;4981050;28;19914;-89
2022/07/26 06:47:25;;;;;;;;;;;;;;;26.63;59.80;101013.72;4963697;28;19929;-90
2022/07/26 06:49:50;;;;;;;;;;;;;;;26.62;60.11;101008.34;4976169;28;19914;-87
2022/07/26 06:52:16;;;;;;;;;;;;;;;26.60;59.80;101011.91;4959791;28;19917;-87
2022/07/26 06:54:41;;;;;;;;;;;;;;;26.62;60.11;101008.34;4975742;28;20008;-87
2022/07/26 06:57:07;;;;;;;;;;;;;;;26.62;60.00;101014.59;4959294;28;20398;-87
2022/07/26 06:59:32;;;;;;;;;;;;;;;26.60;59.71;101011.91;4988247;28;20008;-86
2022/07/26 07:01:58;;;;;;;;;;;;;;;26.59;59.86;101011.97;4974540;28;19922;-87
2022/07/26 07:04:24;;;;;;;;;;;;;;;26.63;59.78;101015.47;4956540;28;19940;-85
2022/07/26 07:06:49;;;;;;;;;;;;;;;26.58;59.92;101013.72;4974639;28;19917;-87
2022/07/26 07:09:15;;;;;;;;;;;;;;;26.61;60.14;101015.50;4959516;28;19918;-84
2022/07/26 07:11:41;;;;;;;;;;;;;;;26.62;60.20;101011.91;4974986;28;19914;-88
2022/07/26 07:14:07;;;;;;;;;;;;;;;26.60;60.00;101009.25;4991987;28;20060;-86
2022/07/26 07:16:33;;;;;;;;;;;;;;;26.64;60.00;101011.91;4974535;28;19991;-86
2022/07/26 07:18:58;;;;;;;;;;;;;;;26.62;59.92;101011.03;4974712;28;19914;-85
2022/07/26 07:21:24;;;;;;;;;;;;;;;26.64;60.14;101011.91;4961427;28;20347;-86
2022/07/26 07:23:49;;;;;;;;;;;;;;;26.58;60.22;101008.34;4992435;28;19925;-86
2022/07/26 07:26:14;;;;;;;;;;;;;;;26.63;60.45;101003.00;4972915;28;19925;-86
2022/07/26 07:28:40;;;;;;;;;;;;;;;26.64;60.19;101004.75;4975242;28;19920;-86
2022/07/26 07:31:05;;;;;;;;;;;;;;;26.70;59.93;100999.34;4968655;28;19923;-85
2022/07/26 07:33:31;;;;;;;;;;;;;;;26.73;60.15;101004.69;4975279;28;19975;-84
2022/07/26 07:35:56;;;;;;;;;;;;;;;26.73;60.22;100999.34;4990120;28;19918;-84
2022/07/26 07:38:22;;;;;;;;;;;;;;;26.74;60.26;101002.91;4988853;28;19948;-84
2022/07/26 07:40:47;;;;;;;;;;;;;;;26.71;60.55;101000.22;4991603;28;19920;-85
2022/07/26 07:43:13;;;;;;;;;;;;;;;26.76;60.39;101004.66;4995377;28;19913;-85
2022/07/26 07:45:38;;;;;;;;;;;;;;;26.76;60.39;101003.78;4975042;28;19914;-84
2022/07/26 07:48:04;;;;;;;;;;;;;;;26.78;60.22;101001.97;4976479;28;20392;-83
2022/07/26 07:50:29;;;;;;;;;;;;;;;26.79;60.52;101001.94;4988661;28;20017;-84
2022/07/26 07:52:55;;;;;;;;;;;;;;;26.80;60.19;101003.72;4975869;28;19918;-85
2022/07/26 07:55:20;;;;;;;;;;;;;;;26.83;60.52;101010.84;4992225;28;20506;-84
2022/07/26 07:57:46;;;;;;;;;;;;;;;26.81;60.85;101007.28;4991269;28;20331;-84
2022/07/26 08:00:14;;;;;;;;;;;;;;;26.87;60.72;101011.72;4968925;28;20013;-84
2022/07/26 08:02:39;;;;;;;;;;;;;;;26.81;60.62;101008.16;4975147;28;19922;-85
2022/07/26 08:05:06;;;;;;;;;;;;;;;26.83;61.01;101012.63;4992247;28;19924;-84
2022/07/26 08:07:35;;;;;;;;;;;;;;;26.87;60.96;101012.59;4991201;28;20307;-86
2022/07/26 08:10:00;;;;;;;;;;;;;;;26.86;60.48;101013.50;4968058;28;20514;-85
2022/07/26 08:12:25;;;;;;;;;;;;;;;26.83;61.25;101008.16;4972773;28;19977;-85
2022/07/26 08:14:52;;;;;;;;;;;;;;;26.85;60.61;101005.47;4970518;28;20392;-84
2022/07/26 08:17:17;;;;;;;;;;;;;;;26.85;60.87;101009.03;4966414;28;19926;-85
2022/07/26 08:19:43;;;;;;;;;;;;;;;26.87;60.64;101001.88;4985481;28;19936;-85
2022/07/26 08:22:09;;;;;;;;;;;;;;;26.86;60.78;100997.44;4975564;28;20335;-84
2022/07/26 08:24:34;;;;;;;;;;;;;;;26.85;61.05;100997.44;4976697;28;20300;-84
2022/07/26 08:26:59;;;;;;;;;;;;;;;26.91;60.96;101000.06;4977438;28;19922;-85
2022/07/26 08:29:25;;;;;;;;;;;;;;;26.86;60.47;101005.47;4975564;28;19941;-84
2022/07/26 08:31:51;;;;;;;;;;;;;;;26.88;60.86;101003.66;4977678;28;19914;-84
2022/07/26 08:34:17;;;;;;;;;;;;;;;26.85;60.98;101003.69;4961258;28;20279;-84
2022/07/26 08:36:42;;;;;;;;;;;;;;;26.85;61.05;101005.47;4977492;28;19914;-84
2022/07/26 08:39:08;;;;;;;;;;;;;;;26.89;60.83;101004.53;4989498;28;20009;-84
2022/07/26 08:41:33;;;;;;;;;;;;;;;26.91;61.36;101008.09;4993017;28;20007;-84
2022/07/26 08:44:06;;;;;;;;;;;;;;;26.90;61.13;100998.25;4974926;28;19989;-85
2022/07/26 08:46:33;;;;;;;;;;;;;;;26.91;61.17;100998.25;4982718;28;20008;-84
2022/07/26 08:48:58;;;;;;;;;;;;;;;26.86;61.57;100993.84;4973173;28;19926;-85
2022/07/26 08:51:24;;;;;;;;;;;;;;;26.90;61.47;100991.13;4985435;28;19941;-84
2022/07/26 08:53:51;;;;;;;;;;;;;;;26.88;60.90;100998.31;4991219;28;20403;-84
2022/07/26 08:56:16;;;;;;;;;;;;;;;26.92;61.19;100993.78;4972083;28;20027;-83
2022/07/26 08:58:42;;;;;;;;;;;;;;;26.89;61.58;101000.06;4988923;28;20384;-83
2022/07/26 09:01:11;;;;;;;;;;;;;;;27.17;62.93;100997.97;4976682;28;20402;-89
2022/07/26 09:03:40;;;;;;;;;;;;;;;27.29;63.72;101001.47;4979030;28;19918;-91
2022/07/26 09:06:15;;;;;;;;;;;;;;;27.07;64.59;100996.28;4961308;28;19968;-86
2022/07/26 09:08:41;;;;;;;;;;;;;;;26.97;65.00;100990.16;4975916;28;19988;-86
2022/07/26 09:11:25;;;;;;;;;;;;;;;26.92;64.51;100986.63;4960668;28;20364;-86
2022/07/26 09:13:51;;;;;;;;;;;;;;;26.99;64.20;100988.34;4973652;28;19921;-86
2022/07/26 09:16:17;;;;;;;;;;;;;;;27.01;63.69;100991.91;4976503;28;19914;-85
2022/07/26 09:18:44;;;;;;;;;;;;;;;27.00;63.55;100983.88;4975537;28;20008;-85
2022/07/26 09:21:26;;;;;;;;;;;;;;;27.02;63.25;100982.06;4976981;28;19914;-84
2022/07/26 09:24:04;;;;;;;;;;;;;;;26.98;62.95;100981.19;4963365;28;19953;-85
2022/07/26 09:26:29;;;;;;;;;;;;;;;27.05;63.46;100983.81;4979059;28;19957;-83
2022/07/26 09:29:08;;;;;;;;;;;;;;;27.03;62.62;100981.19;4960959;28;19960;-85
2022/07/26 09:31:35;;;;;;;;;;;;;;;27.05;62.63;100978.44;4977268;28;19914;-84
2022/07/26 09:34:01;;;;;;;;;;;;;;;27.04;63.26;100979.38;4976287;28;20009;-84
2022/07/26 09:36:27;;;;;;;;;;;;;;;26.99;62.33;100976.75;4960351;28;20016;-86
2022/07/26 09:39:03;;;;;;;;;;;;;;;26.97;62.96;100975.88;4959230;28;19925;-85
2022/07/26 09:41:30;;;;;;;;;;;;;;;27.02;62.81;100968.66;4972209;28;19914;-85
2022/07/26 09:44:06;;;;;;;;;;;;;;;27.06;62.51;100975.78;4963104;28;19914;-85
2022/07/26 09:46:34;;;;;;;;;;;;;;;27.02;62.77;100976.72;4954465;28;20378;-84
2022/07/26 09:49:15;;;;;;;;;;;;;;;27.02;63.03;100972.22;4959603;28;19918;-82
2022/07/26 09:51:44;;;;;;;;;;;;;;;27.05;62.35;100965.97;4972470;28;20012;-84
2022/07/26 09:54:11;;;;;;;;;;;;;;;27.05;63.49;100965.97;4974843;28;20427;-84
2022/07/26 09:56:43;;;;;;;;;;;;;;;27.05;63.26;100974.00;4969173;28;19918;-84
2022/07/26 09:59:08;;;;;;;;;;;;;;;27.05;62.95;100971.31;4976677;28;19968;-84
2022/07/26 10:01:34;;;;;;;;;;;;;;;27.09;62.74;100965.00;4954584;28;20342;-84
2022/07/26 10:03:59;;;;;;;;;;;;;;;27.10;62.95;100971.28;4952690;28;19926;-86
2022/07/26 10:06:25;;;;;;;;;;;;;;;27.11;62.82;100968.56;4986768;28;19918;-85
2022/07/26 10:08:50;;;;;;;;;;;;;;;27.04;63.79;100966.84;4990557;28;19922;-88
2022/07/26 10:11:15;;;;;;;;;;;;;;;27.05;62.95;100965.06;4975272;28;19921;-85
2022/07/26 10:13:50;;;;;;;;;;;;;;;27.07;62.52;100964.13;4968968;28;19924;-85
2022/07/26 10:16:31;;;;;;;;;;;;;;;27.08;62.68;100967.72;4975982;28;19914;-84
2022/07/26 10:18:57;;;;;;;;;;;;;;;27.09;62.62;100969.47;4959372;28;20300;-87
2022/07/26 10:21:29;;;;;;;;;;;;;;;27.06;63.14;100959.69;4958494;28;19913;-86
2022/07/26 10:23:58;;;;;;;;;;;;;;;27.09;62.68;100958.75;4959310;28;19921;-86
2022/07/26 10:26:32;;;;;;;;;;;;;;;27.06;62.40;100962.38;4957414;28;19925;-86
2022/07/26 10:29:16;;;;;;;;;;;;;;;27.04;62.60;100955.25;4967435;28;20407;-86
2022/07/26 10:31:42;;;;;;;;;;;;;;;27.05;63.41;100952.56;4973758;28;20016;-85
2022/07/26 10:34:08;;;;;;;;;;;;;;;27.07;63.04;100953.41;4967933;28;20009;-86
2022/07/26 10:36:34;;;;;;;;;;;;;;;27.08;63.25;100954.31;4969589;28;20052;-86
2022/07/26 10:39:01;;;;;;;;;;;;;;;27.08;63.14;100957.88;4966874;28;20529;-86
2022/07/26 10:41:45;;;;;;;;;;;;;;;27.10;63.04;100948.03;4956378;28;20015;-85
2022/07/26 10:44:11;;;;;;;;;;;;;;;27.08;62.92;100949.84;4974830;28;19945;-86
2022/07/26 10:46:56;;;;;;;;;;;;;;;27.07;63.45;100949.84;4962349;28;19921;-85
2022/07/26 10:49:31;;;;;;;;;;;;;;;27.09;62.53;100948.91;4974807;28;19918;-85
2022/07/26 10:52:04;;;;;;;;;;;;;;;27.10;62.84;100945.34;4992002;28;19914;-87
2022/07/26 10:54:29;;;;;;;;;;;;;;;27.16;62.74;100952.44;4959074;28;19969;-87
2022/07/26 10:56:55;;;;;;;;;;;;;;;27.18;62.89;100945.28;4974019;28;19956;-86
2022/07/26 10:59:31;;;;;;;;;;;;;;;27.16;63.04;100939.91;4974878;28;19913;-86
2022/07/26 11:01:58;;;;;;;;;;;;;;;27.17;63.10;100944.34;4962072;28;19918;-86
2022/07/26 11:04:27;;;;;;;;;;;;;;;27.18;62.56;100939.91;4992056;28;20407;-86
2022/07/26 11:06:53;;;;;;;;;;;;;;;27.19;63.08;100938.97;4973930;28;20001;-86
2022/07/26 11:09:18;;;;;;;;;;;;;;;27.19;63.28;100931.81;4974248;28;20079;-86
2022/07/26 11:11:45;;;;;;;;;;;;;;;27.21;62.85;100923.75;4958716;28;19913;-86
2022/07/26 11:14:11;;;;;;;;;;;;;;;27.23;63.07;100937.19;4973142;28;19922;-85
2022/07/26 11:16:42;;;;;;;;;;;;;;;27.24;63.07;100926.44;4974087;28;19913;-86
2022/07/26 11:19:11;;;;;;;;;;;;;;;27.26;62.90;100923.75;4961379;28;20000;-87
2022/07/26 11:21:37;;;;;;;;;;;;;;;27.25;62.81;100935.38;4980822;28;19917;-86
2022/07/26 11:24:03;;;;;;;;;;;;;;;27.24;63.14;100930.91;4972390;28;19914;-87
2022/07/26 11:26:30;;;;;;;;;;;;;;;27.22;62.42;100922.91;4974427;28;19921;-87
2022/07/26 11:28:57;;;;;;;;;;;;;;;27.27;62.91;100922.84;4974193;28;19933;-87
2022/07/26 11:31:25;;;;;;;;;;;;;;;27.26;62.74;100927.28;4977447;28;20056;-87
2022/07/26 11:33:51;;;;;;;;;;;;;;;27.26;62.86;100923.75;4967855;28;19949;-87
2022/07/26 11:36:18;;;;;;;;;;;;;;;27.26;63.43;100924.63;4976744;28;19914;-86
2022/07/26 11:38:48;;;;;;;;;;;;;;;27.26;63.13;100924.63;4968018;28;19918;-87
2022/07/26 11:41:24;;;;;;;;;;;;;;;27.27;62.93;100922.84;4968207;28;19936;-85
2022/07/26 11:43:49;;;;;;;;;;;;;;;27.26;62.63;100916.56;4974302;28;20391;-86
2022/07/26 11:46:15;;;;;;;;;;;;;;;27.30;63.10;100912.94;4953981;28;19968;-86
2022/07/26 11:48:47;;;;;;;;;;;;;;;27.29;62.81;100913.88;4971780;28;20500;-86
2022/07/26 11:51:16;;;;;;;;;;;;;;;27.27;62.84;100907.63;4950977;28;19921;-85
2022/07/26 11:53:42;;;;;;;;;;;;;;;27.30;63.02;100909.38;4991339;28;19973;-86
2022/07/26 11:56:20;;;;;;;;;;;;;;;27.32;62.66;100899.53;4968245;28;19922;-86
2022/07/26 11:58:47;;;;;;;;;;;;;;;27.27;63.05;100904.06;4974517;28;19925;-85
2022/07/26 12:01:19;;;;;;;;;;;;;;;27.28;63.28;100897.78;4974414;28;19956;-85
2022/07/26 12:03:45;;;;;;;;;;;;;;;27.30;63.14;100893.28;4957455;28;20207;-87
2022/07/26 12:06:12;;;;;;;;;;;;;;;27.33;62.95;100895.97;4973612;28;20375;-87
2022/07/26 12:08:42;;;;;;;;;;;;;;;27.31;63.65;100897.78;4956747;28;19922;-87
2022/07/26 12:11:07;;;;;;;;;;;;;;;27.30;63.22;100893.28;4962295;28;19913;-87
2022/07/26 12:13:46;;;;;;;;;;;;;;;27.32;63.65;100894.16;4959675;28;19917;-86
2022/07/26 12:16:12;;;;;;;;;;;;;;;27.31;62.89;100887.91;4986147;28;20303;-88
2022/07/26 12:18:38;;;;;;;;;;;;;;;27.33;62.94;100888.78;4958320;28;19918;-86
2022/07/26 12:21:04;;;;;;;;;;;;;;;27.34;63.19;100881.63;4973474;28;19921;-86
2022/07/26 12:23:47;;;;;;;;;;;;;;;27.31;63.29;100890.59;4974194;28;19913;-86
2022/07/26 12:26:25;;;;;;;;;;;;;;;27.36;62.66;100878.00;4958488;28;19985;-86
2022/07/26 12:28:51;;;;;;;;;;;;;;;27.33;63.21;100882.53;4961361;28;20364;-86
2022/07/26 12:31:25;;;;;;;;;;;;;;;27.35;63.04;100880.72;4977350;28;19944;-87
2022/07/26 12:33:51;;;;;;;;;;;;;;;27.36;63.13;100880.69;4974624;28;19917;-85
2022/07/26 12:36:20;;;;;;;;;;;;;;;27.40;63.25;100876.19;4963689;28;19914;-86
2022/07/26 12:38:45;;;;;;;;;;;;;;;27.38;63.87;100870.81;4960400;28;19914;-86
2022/07/26 12:41:11;;;;;;;;;;;;;;;27.42;63.32;100864.50;4959446;28;19993;-88
2022/07/26 12:43:39;;;;;;;;;;;;;;;27.41;63.57;100862.75;4991574;28;19917;-86
2022/07/26 12:46:08;;;;;;;;;;;;;;;27.40;63.26;100860.97;4973416;28;19976;-86
2022/07/26 12:48:35;;;;;;;;;;;;;;;27.44;63.53;100858.25;4973776;28;19917;-86
2022/07/26 12:51:01;;;;;;;;;;;;;;;27.45;63.57;100866.25;4971760;28;19929;-88
2022/07/26 12:53:26;;;;;;;;;;;;;;;27.43;63.36;100862.72;4974583;28;20307;-86
2022/07/26 12:55:54;;;;;;;;;;;;;;;27.45;63.51;100866.25;4970074;28;19964;-88